Time;durP1;ratioP1;P1;durP2;ratioP2;P2;SDS_P1;SDS_P2;PMS_P1;PMS_P2;Temp;Humidity;BMP_temperature;BMP_pressure;BME280_temperature;BME280_humidity;BME280_pressure;Samples;Min_cycle;Max_cycle;Signal;HPM_P1;HPM_P2
2022/03/13 00:00:34;;;;;;;11.55;7.25;;;7.80;99.90;;;;;;4945885;28;20082;-74
2022/03/13 00:03:02;;;;;;;8.18;7.32;;;7.70;99.90;;;;;;4945573;28;20078;-74
2022/03/13 00:05:28;;;;;;;16.25;5.93;;;7.70;99.90;;;;;;4945228;28;20413;-74
2022/03/13 00:07:56;;;;;;;9.98;6.40;;;7.70;99.90;;;;;;4928505;28;20130;-74
2022/03/13 00:10:27;;;;;;;8.52;6.93;;;7.70;99.90;;;;;;4944898;28;20058;-74
2022/03/13 00:12:54;;;;;;;8.70;7.15;;;7.60;99.90;;;;;;4944777;28;20134;-74
2022/03/13 00:15:31;;;;;;;5.18;4.68;;;7.60;99.90;;;;;;4946278;28;20070;-75
2022/03/13 00:17:59;;;;;;;7.55;6.13;;;7.60;99.90;;;;;;4944531;28;20085;-74
2022/03/13 00:20:27;;;;;;;7.63;6.88;;;7.60;99.90;;;;;;4945112;28;20054;-74
2022/03/13 00:22:54;;;;;;;13.63;6.88;;;7.60;99.90;;;;;;4945438;28;20086;-74
2022/03/13 00:25:20;;;;;;;11.80;6.43;;;7.60;99.90;;;;;;4941120;28;20074;-74
2022/03/13 00:27:46;;;;;;;8.40;6.55;;;7.60;99.90;;;;;;4925261;29;20557;-74
2022/03/13 00:30:13;;;;;;;10.40;6.85;;;7.60;99.90;;;;;;4926901;29;20038;-74
2022/03/13 00:32:39;;;;;;;8.30;5.70;;;7.60;99.90;;;;;;4926101;29;20071;-74
2022/03/13 00:35:05;;;;;;;7.95;7.07;;;7.60;99.90;;;;;;4923985;29;20079;-74
2022/03/13 00:37:31;;;;;;;7.45;6.20;;;7.60;99.90;;;;;;4925089;29;20054;-74
2022/03/13 00:39:57;;;;;;;7.47;6.50;;;7.60;99.90;;;;;;4925094;29;20051;-74
2022/03/13 00:42:23;;;;;;;6.97;5.75;;;7.50;99.90;;;;;;4930448;28;20031;-74
2022/03/13 00:44:49;;;;;;;14.20;6.70;;;7.50;99.90;;;;;;4944347;28;20106;-74
2022/03/13 00:47:19;;;;;;;6.75;6.22;;;7.50;99.90;;;;;;4944507;28;20111;-74
2022/03/13 00:49:45;;;;;;;9.50;5.75;;;7.50;99.90;;;;;;4945184;28;20047;-74
2022/03/13 00:52:11;;;;;;;5.43;4.93;;;7.40;99.90;;;;;;4945169;28;20094;-74
2022/03/13 00:54:37;;;;;;;9.43;7.28;;;7.40;99.90;;;;;;4943167;28;20043;-74
2022/03/13 00:57:02;;;;;;;6.78;6.28;;;7.40;99.90;;;;;;4945139;28;20047;-74
2022/03/13 00:59:28;;;;;;;11.70;7.20;;;7.40;99.90;;;;;;4943706;28;20078;-74
2022/03/13 01:01:54;;;;;;;12.18;8.25;;;7.40;99.90;;;;;;4932043;28;20035;-74
2022/03/13 01:04:19;;;;;;;7.00;6.35;;;7.40;99.90;;;;;;4926038;29;20048;-74
2022/03/13 01:06:46;;;;;;;10.35;7.32;;;7.40;99.90;;;;;;4907262;29;20075;-74
2022/03/13 01:09:12;;;;;;;7.28;6.63;;;7.40;99.90;;;;;;4926511;29;20051;-74
2022/03/13 01:11:39;;;;;;;7.28;6.05;;;7.40;99.90;;;;;;4940454;28;20074;-74
2022/03/13 01:14:05;;;;;;;9.75;6.93;;;7.40;99.90;;;;;;4924362;29;20439;-74
2022/03/13 01:16:39;;;;;;;11.82;7.13;;;7.50;99.90;;;;;;4925770;29;20577;-74
2022/03/13 01:19:05;;;;;;;10.20;8.55;;;7.50;99.90;;;;;;4924044;29;20315;-74
2022/03/13 01:21:34;;;;;;;8.75;4.72;;;7.40;99.90;;;;;;4924945;29;20490;-74
2022/03/13 01:23:59;;;;;;;7.18;6.47;;;7.50;99.90;;;;;;4925450;29;20123;-74
2022/03/13 01:26:25;;;;;;;14.32;7.47;;;7.50;99.90;;;;;;4925927;29;20155;-74
2022/03/13 01:28:58;;;;;;;13.90;8.77;;;7.50;99.90;;;;;;4924311;29;20043;-74
2022/03/13 01:31:26;;;;;;;6.82;6.00;;;7.60;99.90;;;;;;4925550;29;20050;-74
2022/03/13 01:33:51;;;;;;;8.13;6.13;;;7.60;99.90;;;;;;4925292;29;20078;-74
2022/03/13 01:36:17;;;;;;;9.95;7.30;;;7.60;99.90;;;;;;4924862;29;20542;-74
2022/03/13 01:38:43;;;;;;;13.27;7.18;;;7.70;99.90;;;;;;4924510;29;20099;-74
2022/03/13 01:41:09;;;;;;;8.25;7.13;;;7.60;99.90;;;;;;4923913;29;20042;-74
2022/03/13 01:43:35;;;;;;;19.65;6.82;;;7.70;99.90;;;;;;4925660;29;20483;-74
2022/03/13 01:46:02;;;;;;;7.78;6.88;;;7.70;99.90;;;;;;4941878;28;20040;-75
2022/03/13 01:48:38;;;;;;;11.13;7.75;;;7.70;99.90;;;;;;4943401;28;20047;-74
2022/03/13 01:51:04;;;;;;;14.73;7.57;;;7.70;99.90;;;;;;4943616;28;20050;-74
2022/03/13 01:53:30;;;;;;;8.52;7.20;;;7.70;99.90;;;;;;4943479;28;20045;-74
2022/03/13 01:55:56;;;;;;;6.72;5.97;;;7.70;99.90;;;;;;4942910;28;20091;-74
2022/03/13 01:58:22;;;;;;;8.90;7.47;;;7.70;99.90;;;;;;4944174;28;20055;-74
2022/03/13 02:00:48;;;;;;;8.63;7.25;;;7.70;99.90;;;;;;4942352;28;20054;-74
2022/03/13 02:03:18;;;;;;;7.80;6.60;;;7.70;99.90;;;;;;4944497;28;20490;-74
2022/03/13 02:05:44;;;;;;;6.10;5.53;;;7.70;99.90;;;;;;4943770;28;20054;-74
2022/03/13 02:08:18;;;;;;;7.30;6.15;;;7.70;99.90;;;;;;4944823;28;20036;-74
2022/03/13 02:10:43;;;;;;;6.57;6.00;;;7.70;99.90;;;;;;4940461;23;20118;-74
2022/03/13 02:13:11;;;;;;;8.90;6.95;;;7.60;99.90;;;;;;4927799;29;20087;-75
2022/03/13 02:15:37;;;;;;;10.70;7.03;;;7.70;99.90;;;;;;4928968;29;20047;-74
2022/03/13 02:18:04;;;;;;;17.77;7.78;;;7.60;99.90;;;;;;4929120;29;20068;-74
2022/03/13 02:20:34;;;;;;;7.80;7.00;;;7.60;99.90;;;;;;4943075;29;20091;-74
2022/03/13 02:23:01;;;;;;;14.10;7.13;;;7.60;99.90;;;;;;4927100;29;20075;-74
2022/03/13 02:25:31;;;;;;;8.27;6.40;;;7.60;99.90;;;;;;4929099;29;20044;-74
2022/03/13 02:27:57;;;;;;;7.55;6.80;;;7.60;99.90;;;;;;4927047;29;20060;-74
2022/03/13 02:30:24;;;;;;;12.55;7.45;;;7.60;99.90;;;;;;4928008;29;20028;-74
2022/03/13 02:32:54;;;;;;;6.50;5.90;;;7.60;99.90;;;;;;4928636;29;20070;-74
2022/03/13 02:35:20;;;;;;;8.85;7.10;;;7.60;99.90;;;;;;4928183;29;20048;-75
2022/03/13 02:37:46;;;;;;;8.85;7.20;;;7.60;99.90;;;;;;4927263;29;20462;-74
2022/03/13 02:40:24;;;;;;;13.65;7.43;;;7.60;99.90;;;;;;4928879;29;20043;-74
2022/03/13 02:42:50;;;;;;;20.52;5.53;;;7.60;99.90;;;;;;4928314;29;20075;-74
2022/03/13 02:45:31;;;;;;;12.43;7.03;;;7.60;99.90;;;;;;4916634;29;20406;-75
2022/03/13 02:47:57;;;;;;;11.43;7.05;;;7.60;99.90;;;;;;4909315;29;20100;-74
2022/03/13 02:50:24;;;;;;;9.50;6.25;;;7.60;99.90;;;;;;4908596;29;20511;-75
2022/03/13 02:52:49;;;;;;;7.40;6.50;;;7.60;99.90;;;;;;4911344;29;20478;-75
2022/03/13 02:55:15;;;;;;;7.28;6.63;;;7.60;99.90;;;;;;4941794;29;20051;-75
2022/03/13 02:57:41;;;;;;;7.38;5.78;;;7.60;99.90;;;;;;4927362;29;20746;-75
2022/03/13 03:00:08;;;;;;;16.08;8.57;;;7.60;99.90;;;;;;4928141;29;20044;-75
2022/03/13 03:02:34;;;;;;;10.70;6.97;;;7.60;99.90;;;;;;4926796;29;20083;-75
2022/03/13 03:05:04;;;;;;;13.80;6.30;;;7.60;99.90;;;;;;4926026;29;20130;-75
2022/03/13 03:07:30;;;;;;;12.32;7.15;;;7.60;99.90;;;;;;4927437;29;20047;-75
2022/03/13 03:09:56;;;;;;;5.50;4.97;;;7.60;99.90;;;;;;4927593;29;20155;-75
2022/03/13 03:12:22;;;;;;;7.75;6.40;;;7.60;99.90;;;;;;4926510;29;20047;-75
2022/03/13 03:14:47;;;;;;;12.43;6.55;;;7.60;99.90;;;;;;4926754;29;20055;-75
2022/03/13 03:17:13;;;;;;;9.20;6.97;;;7.60;99.90;;;;;;4928412;29;20051;-75
2022/03/13 03:19:39;;;;;;;8.85;6.88;;;7.50;99.90;;;;;;4925749;29;20130;-75
2022/03/13 03:22:04;;;;;;;8.40;6.50;;;7.60;99.90;;;;;;4927527;29;20561;-75
2022/03/13 03:24:30;;;;;;;13.38;7.60;;;7.60;99.90;;;;;;4927819;29;20050;-75
2022/03/13 03:26:56;;;;;;;7.53;6.78;;;7.60;99.90;;;;;;4926173;29;20044;-75
2022/03/13 03:29:25;;;;;;;14.20;6.53;;;7.60;99.90;;;;;;4927959;29;20199;-75
2022/03/13 03:31:51;;;;;;;8.05;7.22;;;7.60;99.90;;;;;;4925260;29;20114;-74
2022/03/13 03:34:20;;;;;;;6.88;6.28;;;7.60;99.90;;;;;;4927465;29;20523;-75
2022/03/13 03:36:48;;;;;;;5.88;5.40;;;7.60;99.90;;;;;;4927228;29;20043;-75
2022/03/13 03:39:16;;;;;;;12.93;5.80;;;7.60;99.90;;;;;;4928145;29;20043;-75
2022/03/13 03:41:43;;;;;;;6.95;6.25;;;7.60;99.90;;;;;;4927560;29;20055;-75
2022/03/13 03:44:09;;;;;;;7.35;6.80;;;7.60;99.90;;;;;;4908529;29;20059;-75
2022/03/13 03:46:35;;;;;;;6.55;5.93;;;7.60;99.90;;;;;;4927368;29;20418;-75
2022/03/13 03:49:01;;;;;;;8.32;5.80;;;7.60;99.90;;;;;;4926098;29;20054;-75
2022/03/13 03:51:27;;;;;;;13.80;6.85;;;7.60;99.90;;;;;;4926642;29;20050;-75
2022/03/13 03:53:52;;;;;;;15.27;8.10;;;7.50;99.90;;;;;;4925138;29;20503;-75
2022/03/13 03:56:18;;;;;;;8.77;6.32;;;7.50;99.90;;;;;;4925334;29;20127;-75
2022/03/13 03:58:43;;;;;;;13.55;7.30;;;7.60;99.90;;;;;;4926292;29;20047;-75
2022/03/13 04:01:09;;;;;;;10.57;7.03;;;7.50;99.90;;;;;;4926708;29;20060;-75
2022/03/13 04:03:34;;;;;;;8.32;7.15;;;7.50;99.90;;;;;;4927133;29;20136;-75
2022/03/13 04:06:01;;;;;;;6.55;5.95;;;7.50;99.90;;;;;;4924805;29;20059;-75
2022/03/13 04:08:29;;;;;;;7.32;6.38;;;7.50;99.90;;;;;;4927013;29;20075;-75
2022/03/13 04:10:55;;;;;;;7.13;6.47;;;7.50;99.90;;;;;;4925387;29;20052;-75
2022/03/13 04:13:20;;;;;;;6.88;6.30;;;7.50;99.90;;;;;;4926969;29;20083;-75
2022/03/13 04:15:46;;;;;;;13.18;4.95;;;7.50;99.90;;;;;;4925928;29;20502;-75
2022/03/13 04:18:12;;;;;;;13.23;7.45;;;7.50;99.90;;;;;;4925180;29;20043;-75
2022/03/13 04:20:37;;;;;;;6.97;6.28;;;7.50;99.90;;;;;;4925595;29;20047;-75
2022/03/13 04:23:03;;;;;;;5.45;5.03;;;7.50;99.90;;;;;;4926658;29;20070;-75
2022/03/13 04:25:29;;;;;;;6.65;5.45;;;7.50;99.90;;;;;;4926177;29;20175;-75
2022/03/13 04:27:57;;;;;;;7.88;5.57;;;7.50;99.90;;;;;;4926301;29;20047;-75
2022/03/13 04:30:23;;;;;;;8.07;6.65;;;7.50;99.90;;;;;;4925942;29;20079;-75
2022/03/13 04:32:48;;;;;;;11.75;6.63;;;7.50;99.90;;;;;;4924570;29;20044;-75
2022/03/13 04:35:14;;;;;;;8.85;6.95;;;7.50;99.90;;;;;;4908995;29;20130;-75
2022/03/13 04:37:40;;;;;;;7.28;6.65;;;7.50;99.90;;;;;;4925844;29;20094;-75
2022/03/13 04:40:05;;;;;;;8.25;6.97;;;7.50;99.90;;;;;;4925162;29;20138;-75
2022/03/13 04:42:31;;;;;;;9.15;4.53;;;7.50;99.90;;;;;;4925395;29;20059;-75
2022/03/13 04:44:56;;;;;;;8.95;8.05;;;7.50;99.90;;;;;;4917078;29;20044;-75
2022/03/13 04:47:22;;;;;;;8.65;6.57;;;7.40;99.90;;;;;;4907291;29;20044;-75
2022/03/13 04:49:48;;;;;;;9.07;7.90;;;7.50;99.90;;;;;;4905388;29;20052;-75
2022/03/13 04:52:13;;;;;;;18.45;6.97;;;7.50;99.90;;;;;;4890913;29;20048;-75
2022/03/13 04:54:39;;;;;;;9.15;6.70;;;7.40;99.90;;;;;;4923719;29;20047;-75
2022/03/13 04:57:05;;;;;;;7.70;6.93;;;7.50;99.90;;;;;;4924860;29;20510;-75
2022/03/13 04:59:30;;;;;;;10.27;6.70;;;7.40;99.90;;;;;;4926082;29;20077;-75
2022/03/13 05:01:56;;;;;;;10.88;6.55;;;7.40;99.90;;;;;;4924790;29;20079;-75
2022/03/13 05:04:21;;;;;;;9.40;6.40;;;7.40;99.90;;;;;;4925004;29;20546;-75
2022/03/13 05:06:47;;;;;;;7.68;6.15;;;7.40;99.90;;;;;;4926043;29;20073;-74
2022/03/13 05:09:12;;;;;;;7.60;6.72;;;7.40;99.90;;;;;;4926065;29;20044;-75
2022/03/13 05:11:41;;;;;;;7.82;6.57;;;7.50;99.90;;;;;;4924762;29;20062;-75
2022/03/13 05:14:07;;;;;;;8.55;7.68;;;7.50;99.90;;;;;;4925858;29;20047;-75
2022/03/13 05:16:32;;;;;;;7.75;6.47;;;7.50;99.90;;;;;;4925302;29;20411;-75
2022/03/13 05:18:58;;;;;;;7.57;6.28;;;7.50;99.90;;;;;;4925339;29;20040;-75
2022/03/13 05:21:23;;;;;;;9.00;6.13;;;7.50;99.90;;;;;;4924728;29;20469;-75
2022/03/13 05:23:49;;;;;;;7.25;6.68;;;7.50;99.90;;;;;;4925249;29;20561;-75
2022/03/13 05:26:14;;;;;;;8.88;7.13;;;7.50;99.90;;;;;;4926157;29;20611;-74
2022/03/13 05:28:40;;;;;;;7.13;6.47;;;7.50;99.90;;;;;;4924748;29;20102;-75
2022/03/13 05:31:05;;;;;;;13.07;5.90;;;7.50;99.90;;;;;;4925453;29;20040;-75
2022/03/13 05:33:31;;;;;;;8.38;6.00;;;7.50;99.90;;;;;;4925420;29;20130;-75
2022/03/13 05:35:59;;;;;;;7.07;6.43;;;7.50;99.90;;;;;;4924543;29;20043;-75
2022/03/13 05:38:25;;;;;;;9.00;6.38;;;7.50;99.90;;;;;;4925642;29;20142;-75
2022/03/13 05:40:51;;;;;;;12.45;5.90;;;7.50;99.90;;;;;;4925307;29;20768;-75
2022/03/13 05:43:16;;;;;;;7.95;7.15;;;7.50;99.90;;;;;;4925443;29;20048;-75
2022/03/13 05:45:42;;;;;;;8.57;7.70;;;7.50;99.90;;;;;;4910902;29;20048;-75
2022/03/13 05:48:15;;;;;;;18.98;7.63;;;7.50;99.90;;;;;;4924302;29;20279;-75
2022/03/13 05:50:41;;;;;;;7.72;6.30;;;7.50;99.90;;;;;;4925283;29;20119;-75
2022/03/13 05:53:06;;;;;;;7.43;6.65;;;7.50;99.90;;;;;;4925026;29;20124;-75
2022/03/13 05:55:32;;;;;;;13.88;9.18;;;7.50;99.90;;;;;;4925561;29;20498;-75
2022/03/13 05:57:59;;;;;;;9.38;6.72;;;7.50;99.90;;;;;;4924862;29;20455;-75
2022/03/13 06:00:26;;;;;;;8.57;7.85;;;7.50;99.90;;;;;;4940158;28;20043;-75
2022/03/13 06:02:52;;;;;;;10.63;7.10;;;7.50;99.90;;;;;;4925247;29;20047;-75
2022/03/13 06:05:19;;;;;;;7.80;6.45;;;7.50;99.90;;;;;;4923211;29;20083;-75
2022/03/13 06:07:46;;;;;;;8.27;7.43;;;7.50;99.90;;;;;;4924953;29;20050;-75
2022/03/13 06:10:13;;;;;;;10.30;7.22;;;7.50;99.90;;;;;;4925223;29;20080;-75
2022/03/13 06:12:39;;;;;;;10.98;6.95;;;7.40;99.90;;;;;;4925118;29;20067;-75
2022/03/13 06:15:06;;;;;;;12.93;7.43;;;7.40;99.90;;;;;;4924713;29;20392;-75
2022/03/13 06:17:32;;;;;;;11.73;7.20;;;7.50;99.90;;;;;;4924902;29;20043;-75
2022/03/13 06:19:57;;;;;;;8.38;7.05;;;7.50;99.90;;;;;;4924082;29;20048;-75
2022/03/13 06:22:24;;;;;;;9.60;8.30;;;7.50;99.90;;;;;;4925102;29;20079;-75
2022/03/13 06:24:50;;;;;;;8.88;8.07;;;7.40;99.90;;;;;;4924749;29;20039;-75
2022/03/13 06:27:17;;;;;;;9.88;6.53;;;7.40;99.90;;;;;;4924790;29;20040;-75
2022/03/13 06:29:44;;;;;;;7.53;5.88;;;7.50;99.90;;;;;;4924866;29;20044;-75
2022/03/13 06:32:09;;;;;;;11.43;7.88;;;7.50;99.90;;;;;;4925135;29;20534;-75
2022/03/13 06:34:36;;;;;;;7.63;7.00;;;7.50;99.90;;;;;;4924022;29;20530;-75
2022/03/13 06:37:03;;;;;;;7.68;6.95;;;7.50;99.90;;;;;;4924656;29;20454;-75
2022/03/13 06:39:29;;;;;;;6.78;5.53;;;7.50;99.90;;;;;;4924665;29;20126;-75
2022/03/13 06:41:54;;;;;;;10.55;8.75;;;7.50;99.90;;;;;;4923107;29;20119;-75
2022/03/13 06:44:20;;;;;;;10.55;7.47;;;7.50;99.90;;;;;;4921092;29;20044;-75
2022/03/13 06:46:46;;;;;;;9.15;6.80;;;7.50;99.90;;;;;;4909301;29;20055;-75
2022/03/13 06:49:11;;;;;;;13.85;7.97;;;7.50;99.90;;;;;;4923054;29;20078;-75
2022/03/13 06:51:38;;;;;;;7.25;6.38;;;7.50;99.90;;;;;;4924862;29;20051;-75
2022/03/13 06:54:05;;;;;;;12.13;6.30;;;7.50;99.90;;;;;;4922964;29;20106;-75
2022/03/13 06:56:31;;;;;;;7.65;7.05;;;7.50;99.90;;;;;;4927195;29;20218;-75
2022/03/13 06:59:02;;;;;;;7.22;5.82;;;7.50;99.90;;;;;;4926040;29;20134;-75
2022/03/13 07:01:29;;;;;;;8.27;7.45;;;7.50;99.90;;;;;;4928391;29;20047;-75
2022/03/13 07:03:54;;;;;;;12.00;7.60;;;7.50;99.90;;;;;;4926674;29;20043;-75
2022/03/13 07:06:20;;;;;;;11.65;6.72;;;7.50;99.90;;;;;;4927999;29;20450;-75
2022/03/13 07:08:45;;;;;;;10.68;7.78;;;7.50;99.90;;;;;;4927856;29;20518;-75
2022/03/13 07:11:11;;;;;;;7.30;6.60;;;7.50;99.90;;;;;;4926714;29;20055;-75
2022/03/13 07:13:39;;;;;;;7.50;6.85;;;7.50;99.90;;;;;;4928141;29;20070;-75
2022/03/13 07:16:07;;;;;;;7.40;6.32;;;7.50;99.90;;;;;;4927132;29;20054;-75
2022/03/13 07:18:32;;;;;;;9.68;6.93;;;7.50;99.90;;;;;;4927400;29;20039;-75
2022/03/13 07:20:58;;;;;;;14.35;7.82;;;7.50;99.90;;;;;;4926914;29;20427;-75
2022/03/13 07:23:24;;;;;;;10.00;7.35;;;7.50;99.90;;;;;;4927659;29;20046;-75
2022/03/13 07:25:50;;;;;;;9.27;8.13;;;7.60;99.90;;;;;;4927427;29;20036;-75
2022/03/13 07:28:16;;;;;;;12.20;6.07;;;7.60;99.90;;;;;;4927881;29;20048;-75
2022/03/13 07:30:42;;;;;;;12.02;6.70;;;7.60;99.90;;;;;;4926607;29;20051;-75
2022/03/13 07:33:07;;;;;;;9.07;7.40;;;7.60;99.90;;;;;;4927551;29;20387;-75
2022/03/13 07:35:33;;;;;;;27.30;5.68;;;7.60;99.90;;;;;;4924646;29;20052;-75
2022/03/13 07:37:59;;;;;;;7.63;6.68;;;7.60;99.90;;;;;;4926806;29;20553;-75
2022/03/13 07:40:24;;;;;;;13.95;6.38;;;7.60;99.90;;;;;;4927063;29;20430;-75
2022/03/13 07:42:50;;;;;;;12.70;8.00;;;7.70;99.90;;;;;;4926191;29;20042;-75
2022/03/13 07:45:15;;;;;;;11.40;6.10;;;7.70;99.90;;;;;;4925253;29;20047;-75
2022/03/13 07:47:41;;;;;;;8.70;5.65;;;7.70;99.90;;;;;;4927142;29;20458;-75
2022/03/13 07:50:08;;;;;;;8.93;6.93;;;7.70;99.90;;;;;;4924545;29;20406;-75
2022/03/13 07:52:33;;;;;;;9.85;8.18;;;7.70;99.90;;;;;;4924625;29;20059;-75
2022/03/13 07:54:59;;;;;;;14.10;6.25;;;7.70;99.90;;;;;;4925409;29;20686;-75
2022/03/13 07:57:25;;;;;;;7.57;4.97;;;7.70;99.90;;;;;;4924649;29;20040;-76
2022/03/13 07:59:50;;;;;;;13.05;7.25;;;7.70;99.90;;;;;;4925375;29;20071;-75
2022/03/13 08:02:16;;;;;;;9.23;6.65;;;7.70;99.90;;;;;;4925296;29;20044;-75
2022/03/13 08:04:42;;;;;;;11.73;6.45;;;7.70;99.90;;;;;;4925199;29;20490;-75
2022/03/13 08:07:08;;;;;;;10.48;6.05;;;7.80;99.90;;;;;;4925492;29;20067;-75
2022/03/13 08:09:35;;;;;;;12.07;7.45;;;7.80;99.90;;;;;;4920586;29;20927;-75
2022/03/13 08:12:01;;;;;;;5.90;5.18;;;7.80;99.90;;;;;;4922156;29;20040;-75
2022/03/13 08:14:27;;;;;;;11.20;6.22;;;7.80;99.90;;;;;;4918245;29;20079;-75
2022/03/13 08:16:52;;;;;;;11.30;8.07;;;7.80;99.90;;;;;;4926455;29;20414;-75
2022/03/13 08:19:18;;;;;;;7.82;7.13;;;7.80;99.90;;;;;;4925304;29;20425;-75
2022/03/13 08:21:44;;;;;;;5.95;5.25;;;7.80;99.90;;;;;;4925733;29;20110;-75
2022/03/13 08:24:10;;;;;;;7.25;6.65;;;7.80;99.90;;;;;;4926500;29;20044;-76
2022/03/13 08:26:39;;;;;;;23.65;6.85;;;7.90;99.90;;;;;;4924632;29;20486;-75
2022/03/13 08:29:09;;;;;;;6.55;6.00;;;7.90;99.90;;;;;;4913681;29;20127;-75
2022/03/13 08:31:35;;;;;;;6.18;5.57;;;7.90;99.90;;;;;;4924930;29;20401;-76
2022/03/13 08:34:07;;;;;;;4.68;4.25;;;7.90;99.90;;;;;;4921762;29;20047;-76
2022/03/13 08:36:35;;;;;;;13.73;6.07;;;8.00;99.90;;;;;;4925467;29;20406;-75
2022/03/13 08:39:01;;;;;;;10.70;7.22;;;8.00;99.90;;;;;;4925873;29;20051;-74
2022/03/13 08:41:26;;;;;;;8.18;6.60;;;8.00;99.90;;;;;;4923165;29;20403;-76
2022/03/13 08:43:52;;;;;;;6.35;5.85;;;8.10;99.90;;;;;;4940354;28;20102;-75
2022/03/13 08:46:17;;;;;;;11.57;7.07;;;8.10;99.90;;;;;;4921504;29;20047;-76
2022/03/13 08:48:44;;;;;;;7.18;6.47;;;8.20;99.90;;;;;;4924716;29;20074;-76
2022/03/13 08:51:12;;;;;;;6.75;5.32;;;8.30;99.90;;;;;;4922359;29;20364;-82
2022/03/13 08:53:37;;;;;;;5.82;4.45;;;8.30;99.90;;;;;;4925360;29;20044;-83
2022/03/13 08:56:03;;;;;;;8.25;6.35;;;8.40;99.90;;;;;;4922973;29;20035;-78
2022/03/13 08:58:29;;;;;;;12.88;5.88;;;8.50;99.90;;;;;;4924911;29;20055;-78
2022/03/13 09:00:56;;;;;;;6.25;5.00;;;8.50;99.90;;;;;;4925059;29;20499;-78
2022/03/13 09:03:21;;;;;;;7.55;5.00;;;8.50;99.90;;;;;;4925823;29;20487;-81
2022/03/13 09:05:48;;;;;;;8.15;5.97;;;8.50;99.90;;;;;;4919907;29;20048;-80
2022/03/13 09:08:15;;;;;;;10.68;4.85;;;8.60;99.90;;;;;;4924643;29;20067;-73
2022/03/13 09:10:41;;;;;;;11.35;6.97;;;8.60;99.90;;;;;;4921265;29;20059;-72
2022/03/13 09:13:06;;;;;;;7.35;6.75;;;8.60;99.90;;;;;;4920231;29;20052;-72
2022/03/13 09:15:32;;;;;;;7.72;6.38;;;8.70;99.90;;;;;;4917220;29;20091;-72
2022/03/13 09:18:02;;;;;;;8.43;5.85;;;8.70;99.90;;;;;;4919326;29;20048;-72
2022/03/13 09:20:27;;;;;;;7.32;5.68;;;8.70;99.90;;;;;;4915698;29;20442;-72
2022/03/13 09:22:53;;;;;;;11.02;5.20;;;8.80;99.90;;;;;;4914852;29;20102;-72
2022/03/13 09:25:20;;;;;;;12.73;7.70;;;8.80;99.90;;;;;;4922118;29;20569;-72
2022/03/13 09:27:45;;;;;;;9.40;5.85;;;8.80;99.90;;;;;;4923541;29;20168;-72
2022/03/13 09:30:12;;;;;;;4.90;4.50;;;8.80;99.90;;;;;;4924102;29;20510;-72
2022/03/13 09:32:37;;;;;;;7.63;4.70;;;8.90;99.90;;;;;;4919459;29;20047;-72
2022/03/13 09:35:04;;;;;;;11.95;7.22;;;8.90;99.90;;;;;;4919440;29;20514;-72
2022/03/13 09:37:30;;;;;;;9.05;7.53;;;9.00;99.90;;;;;;4922630;29;20872;-72
2022/03/13 09:39:56;;;;;;;7.97;5.18;;;9.10;99.90;;;;;;4925406;29;20179;-72
2022/03/13 09:42:21;;;;;;;11.35;5.60;;;9.10;99.90;;;;;;4925108;29;20126;-72
2022/03/13 09:44:47;;;;;;;6.60;4.97;;;9.20;99.90;;;;;;4923019;29;20051;-72
2022/03/13 09:47:13;;;;;;;8.60;5.15;;;9.20;99.90;;;;;;4939783;29;20050;-72
2022/03/13 09:49:42;;;;;;;9.82;5.50;;;9.30;99.90;;;;;;4923154;29;20707;-72
2022/03/13 09:52:08;;;;;;;6.30;5.70;;;9.30;99.90;;;;;;4925319;29;20075;-72
2022/03/13 09:54:34;;;;;;;9.30;5.50;;;9.40;99.90;;;;;;4925198;29;20051;-72
2022/03/13 09:57:04;;;;;;;12.10;5.80;;;9.40;99.90;;;;;;4923902;29;20572;-72
2022/03/13 09:59:31;;;;;;;5.70;5.13;;;9.50;99.90;;;;;;4923946;29;20130;-72
2022/03/13 10:01:57;;;;;;;8.65;6.13;;;9.50;99.90;;;;;;4924530;29;20098;-72
2022/03/13 10:04:23;;;;;;;7.05;6.50;;;9.50;99.90;;;;;;4924051;29;20047;-72
2022/03/13 10:07:03;;;;;;;9.60;5.72;;;9.60;99.90;;;;;;4923018;29;20040;-72
2022/03/13 10:09:29;;;;;;;9.50;6.57;;;9.70;99.90;;;;;;4924532;29;20055;-73
2022/03/13 10:12:16;;;;;;;11.18;5.70;;;9.70;99.90;;;;;;4913159;29;20116;-72
2022/03/13 10:15:06;;;;;;;7.32;4.68;;;9.80;99.90;;;;;;4919861;29;20047;-72
2022/03/13 10:17:34;;;;;;;8.63;6.95;;;9.90;99.90;;;;;;4925019;29;20131;-72
2022/03/13 10:20:25;;;;;;;9.13;5.90;;;9.90;99.90;;;;;;4924443;29;20142;-72
2022/03/13 10:23:00;;;;;;;7.95;5.07;;;9.90;99.90;;;;;;4915390;29;20052;-72
2022/03/13 10:25:34;;;;;;;5.85;5.18;;;10.00;99.90;;;;;;4915555;29;20055;-72
2022/03/13 10:28:12;;;;;;;6.32;4.15;;;10.00;99.90;;;;;;4929472;28;20058;-72
2022/03/13 10:30:38;;;;;;;8.25;5.13;;;10.10;99.90;;;;;;4911709;29;20597;-73
2022/03/13 10:33:05;;;;;;;6.60;5.35;;;10.10;99.90;;;;;;4921958;29;20115;-75
2022/03/13 10:35:31;;;;;;;12.25;5.85;;;10.10;99.90;;;;;;4915139;29;20118;-74
2022/03/13 10:37:57;;;;;;;6.07;5.63;;;10.20;99.90;;;;;;4921593;29;20127;-74
2022/03/13 10:40:24;;;;;;;12.35;5.55;;;10.20;99.90;;;;;;4918483;29;20048;-74
2022/03/13 10:42:53;;;;;;;10.10;6.30;;;10.30;99.90;;;;;;4919993;29;20040;-74
2022/03/13 10:45:39;;;;;;;8.40;6.93;;;10.30;99.90;;;;;;4918651;29;20039;-78
2022/03/13 10:48:32;;;;;;;5.13;4.70;;;10.40;99.90;;;;;;4943405;28;20135;-77
2022/03/13 10:51:00;;;;;;;6.85;5.88;;;10.50;99.90;;;;;;4918877;29;20067;-76
2022/03/13 10:53:27;;;;;;;12.40;6.13;;;10.50;99.90;;;;;;4898697;29;20166;-76
2022/03/13 10:56:11;;;;;;;8.90;5.45;;;10.60;99.90;;;;;;4908353;29;20056;-75
2022/03/13 10:58:44;;;;;;;3.70;3.33;;;10.60;99.90;;;;;;4908686;29;20080;-76
2022/03/13 11:01:18;;;;;;;6.80;5.50;;;10.60;99.90;;;;;;4919011;29;20071;-75
2022/03/13 11:03:59;;;;;;;5.90;4.70;;;10.70;99.90;;;;;;4942607;29;20047;-78
2022/03/13 11:06:26;;;;;;;7.67;6.40;;;10.70;99.90;;;;;;4920330;29;20103;-77
2022/03/13 11:08:54;;;;;;;5.38;4.20;;;10.80;99.90;;;;;;4917252;29;20044;-77
2022/03/13 11:11:24;;;;;;;8.00;5.38;;;10.80;99.90;;;;;;4908898;29;20312;-74
2022/03/13 11:13:52;;;;;;;8.55;6.30;;;10.90;99.90;;;;;;4922610;29;20106;-73
2022/03/13 11:16:26;;;;;;;10.77;6.45;;;11.00;99.90;;;;;;4925761;29;20040;-75
2022/03/13 11:18:55;;;;;;;7.50;5.28;;;10.90;99.90;;;;;;4926424;29;20569;-75
2022/03/13 11:21:21;;;;;;;5.75;4.57;;;10.90;99.90;;;;;;4925827;29;20518;-73
2022/03/13 11:23:47;;;;;;;6.10;4.35;;;10.90;99.90;;;;;;4917052;29;20044;-74
2022/03/13 11:26:18;;;;;;;6.65;5.97;;;11.00;99.90;;;;;;4924274;29;20039;-75
2022/03/13 11:28:46;;;;;;;7.10;5.03;;;11.00;99.90;;;;;;4927058;29;20043;-75
2022/03/13 11:31:37;;;;;;;11.57;5.47;;;11.00;99.90;;;;;;4927535;29;20067;-75
2022/03/13 11:34:11;;;;;;;6.25;5.13;;;11.10;99.90;;;;;;4926217;29;20134;-75
2022/03/13 11:36:36;;;;;;;4.53;3.70;;;11.10;99.90;;;;;;4924545;29;20144;-75
2022/03/13 11:39:05;;;;;;;7.63;5.63;;;11.20;99.90;;;;;;4927042;29;20678;-74
2022/03/13 11:41:46;;;;;;;7.80;5.75;;;11.30;99.90;;;;;;4925337;29;20051;-74
2022/03/13 11:44:23;;;;;;;4.97;4.47;;;11.30;99.90;;;;;;4924213;29;20501;-75
2022/03/13 11:46:51;;;;;;;9.10;5.85;;;11.40;99.90;;;;;;4919588;29;20078;-74
2022/03/13 11:49:34;;;;;;;9.27;4.72;;;11.50;99.90;;;;;;4926024;29;20039;-75
2022/03/13 11:52:12;;;;;;;9.82;5.68;;;11.50;99.90;;;;;;4925175;29;20067;-75
2022/03/13 11:54:47;;;;;;;5.22;4.30;;;11.50;99.90;;;;;;4926229;29;20052;-75
2022/03/13 11:57:14;;;;;;;9.50;6.05;;;11.60;99.90;;;;;;4927378;29;20090;-75
2022/03/13 11:59:40;;;;;;;12.70;5.90;;;11.60;99.90;;;;;;4922857;29;20067;-78
2022/03/13 12:02:10;;;;;;;5.45;4.40;;;11.70;99.90;;;;;;4926718;29;20043;-76
2022/03/13 12:04:36;;;;;;;7.30;5.15;;;11.70;99.90;;;;;;4924109;29;20052;-76
2022/03/13 12:07:01;;;;;;;9.88;4.13;;;11.70;99.90;;;;;;4925995;29;20040;-75
2022/03/13 12:09:27;;;;;;;8.15;5.38;;;11.70;99.90;;;;;;4918195;29;20223;-74
2022/03/13 12:12:04;;;;;;;5.40;4.20;;;11.70;99.90;;;;;;4926280;29;20427;-77
2022/03/13 12:14:53;;;;;;;9.98;4.05;;;11.80;99.90;;;;;;4908344;29;20146;-76
2022/03/13 12:17:22;;;;;;;9.30;5.47;;;11.80;99.90;;;;;;4924437;29;20062;-73
2022/03/13 12:19:48;;;;;;;4.68;4.10;;;11.80;99.90;;;;;;4924611;29;20047;-73
2022/03/13 12:22:15;;;;;;;4.78;3.38;;;11.80;99.90;;;;;;4924993;29;20031;-73
2022/03/13 12:24:57;;;;;;;6.10;3.97;;;12.00;99.90;;;;;;4916469;28;20557;-77
2022/03/13 12:27:24;;;;;;;7.97;5.38;;;12.00;99.90;;;;;;4916487;29;20100;-76
2022/03/13 12:29:55;;;;;;;5.68;4.80;;;12.00;99.90;;;;;;4915045;29;20403;-77
2022/03/13 12:32:21;;;;;;;9.63;5.88;;;12.00;99.90;;;;;;4914757;29;20064;-77
2022/03/13 12:34:47;;;;;;;4.90;4.38;;;12.10;99.90;;;;;;4915172;29;20626;-75
2022/03/13 12:37:13;;;;;;;5.53;3.70;;;12.10;99.90;;;;;;4915548;29;20127;-76
2022/03/13 12:39:50;;;;;;;4.47;4.07;;;12.10;99.90;;;;;;4914921;29;20046;-75
2022/03/13 12:42:21;;;;;;;4.65;3.33;;;12.20;99.90;;;;;;4917789;29;20066;-77
2022/03/13 12:45:10;;;;;;;5.55;3.60;;;12.20;99.90;;;;;;4917134;29;20107;-77
2022/03/13 12:47:40;;;;;;;4.00;3.25;;;12.20;99.90;;;;;;4916698;29;20043;-75
2022/03/13 12:50:11;;;;;;;3.33;3.03;;;12.30;99.90;;;;;;4916229;29;20082;-76
2022/03/13 12:52:37;;;;;;;4.22;3.83;;;12.30;99.90;;;;;;4914559;29;20092;-77
2022/03/13 12:55:08;;;;;;;8.13;4.40;;;12.30;99.90;;;;;;4913968;29;20047;-78